createdAt,value
2022-12-28T00:31:22.153Z,438.00
2022-12-28T00:32:22.112Z,441.00
2022-12-28T00:33:22.101Z,441.00
2022-12-28T00:34:22.125Z,442.00
2022-12-28T00:35:22.123Z,440.00
2022-12-28T00:36:22.629Z,437.00
2022-12-28T00:38:22.044Z,439.00
2022-12-28T00:39:21.970Z,440.00
2022-12-28T00:40:24.107Z,439.00
2022-12-28T00:41:21.957Z,440.00
2022-12-28T00:42:21.927Z,438.00
2022-12-28T00:43:21.946Z,437.00
2022-12-28T00:44:21.910Z,438.00
2022-12-28T00:45:21.871Z,437.00
2022-12-28T00:46:21.837Z,438.00
2022-12-28T00:47:21.824Z,439.00
2022-12-28T00:48:21.854Z,437.00
2022-12-28T00:49:21.818Z,438.00
2022-12-28T00:50:21.780Z,438.00
2022-12-28T00:51:21.764Z,437.00
2022-12-28T00:52:21.727Z,436.00
2022-12-28T00:53:21.711Z,437.00
2022-12-28T00:54:21.698Z,438.00
2022-12-28T00:56:21.738Z,436.00
2022-12-28T00:57:21.680Z,434.00
2022-12-28T00:58:21.633Z,436.00
2022-12-28T00:59:21.602Z,437.00
2022-12-28T01:00:21.603Z,436.00
2022-12-28T01:01:21.714Z,437.00
2022-12-28T01:02:21.709Z,436.00
2022-12-28T01:03:21.588Z,439.00
2022-12-28T01:04:21.529Z,436.00
2022-12-28T01:05:21.519Z,435.00
2022-12-28T01:06:21.517Z,436.00
2022-12-28T01:07:21.461Z,437.00
2022-12-28T01:08:21.513Z,439.00
2022-12-28T01:09:21.458Z,439.00
2022-12-28T01:10:21.434Z,439.00
2022-12-28T01:12:21.375Z,439.00
2022-12-28T01:13:21.350Z,438.00
2022-12-28T01:14:21.349Z,437.00
2022-12-28T01:16:21.437Z,439.00
2022-12-28T01:17:21.301Z,438.00
2022-12-28T01:18:21.320Z,436.00
2022-12-28T01:19:21.303Z,437.00
2022-12-28T01:21:21.260Z,435.00
2022-12-28T01:22:21.265Z,436.00
2022-12-28T01:23:21.196Z,435.00
2022-12-28T01:24:21.178Z,432.00
2022-12-28T01:25:21.173Z,435.00
2022-12-28T01:26:21.215Z,434.00
2022-12-28T01:27:21.198Z,438.00
2022-12-28T01:28:21.103Z,437.00
2022-12-28T01:29:21.133Z,436.00
2022-12-28T01:30:21.071Z,436.00
2022-12-28T01:44:20.918Z,433.00
2022-12-28T02:01:21.254Z,433.00
2022-12-28T02:02:20.852Z,434.00
2022-12-28T02:03:20.736Z,437.00
2022-12-28T02:04:20.652Z,437.00
2022-12-28T02:05:20.683Z,439.00
2022-12-28T02:06:20.642Z,441.00
2022-12-28T02:07:20.581Z,440.00
2022-12-28T02:08:20.629Z,442.00
2022-12-28T02:09:20.558Z,441.00
2022-12-28T02:10:43.893Z,439.00
2022-12-28T02:11:21.522Z,439.00
2022-12-28T02:12:20.511Z,438.00
2022-12-28T02:13:20.487Z,440.00
2022-12-28T02:14:20.447Z,440.00
2022-12-28T02:15:23.199Z,438.00
2022-12-28T02:16:20.526Z,437.00
2022-12-28T02:17:20.430Z,437.00
2022-12-28T02:18:20.456Z,438.00
2022-12-28T02:19:20.426Z,437.00
2022-12-28T02:20:20.368Z,437.00
2022-12-28T02:21:20.380Z,436.00
2022-12-28T02:22:20.362Z,437.00
2022-12-28T02:23:20.387Z,438.00
2022-12-28T02:24:20.286Z,439.00
2022-12-28T02:25:20.255Z,438.00
2022-12-28T02:26:20.236Z,436.00
2022-12-28T02:27:20.183Z,434.00
2022-12-28T02:28:20.149Z,433.00
2022-12-28T02:29:20.151Z,432.00
2022-12-28T02:30:20.103Z,431.00
2022-12-28T02:42:20.131Z,436.00
2022-12-28T02:47:20.193Z,435.00
2022-12-28T02:52:20.641Z,432.00
2022-12-28T03:03:20.171Z,437.00
2022-12-28T03:09:20.134Z,433.00
2022-12-28T03:16:20.174Z,426.00
2022-12-28T03:53:20.164Z,427.00
2022-12-28T07:59:13.272Z,416.00
2022-12-28T08:36:12.477Z,421.00
2022-12-28T08:37:12.821Z,422.00
2022-12-28T08:38:12.419Z,423.00
2022-12-28T08:39:12.379Z,421.00
2022-12-28T08:40:12.346Z,421.00
2022-12-28T08:41:12.363Z,420.00
2022-12-28T08:43:12.325Z,422.00
2022-12-28T08:44:12.307Z,423.00
2022-12-28T08:45:12.783Z,422.00
2022-12-28T08:46:12.427Z,423.00
2022-12-28T08:47:12.320Z,423.00
2022-12-28T08:48:12.201Z,425.00
2022-12-28T08:49:12.178Z,424.00
2022-12-28T08:50:13.002Z,425.00
2022-12-28T08:51:12.143Z,424.00
2022-12-28T08:52:12.127Z,422.00
2022-12-28T08:53:12.128Z,422.00
2022-12-28T08:54:12.098Z,420.00
2022-12-28T08:55:12.058Z,417.00
2022-12-28T08:56:12.037Z,416.00
2022-12-28T08:57:12.018Z,416.00
2022-12-28T08:59:11.967Z,417.00
2022-12-28T09:00:11.941Z,418.00
2022-12-28T09:01:12.043Z,416.00
2022-12-28T09:02:11.934Z,413.00
2022-12-28T09:03:12.006Z,414.00
2022-12-28T09:04:11.895Z,415.00
2022-12-28T09:05:11.829Z,418.00
2022-12-28T09:06:11.833Z,421.00
2022-12-28T09:07:11.775Z,421.00
2022-12-28T09:08:11.743Z,422.00
2022-12-28T09:09:11.734Z,423.00
2022-12-28T09:10:11.730Z,422.00
2022-12-28T09:11:11.687Z,420.00
2022-12-28T09:12:11.685Z,419.00
2022-12-28T09:13:11.656Z,420.00
2022-12-28T09:14:17.000Z,418.00
2022-12-28T09:15:11.570Z,419.00
2022-12-28T09:16:11.606Z,417.00
2022-12-28T09:17:11.542Z,418.00
2022-12-28T09:18:11.535Z,418.00
2022-12-28T09:19:11.527Z,417.00
2022-12-28T09:20:11.471Z,416.00
2022-12-28T09:21:11.472Z,416.00
2022-12-28T09:22:11.444Z,417.00
2022-12-28T09:23:11.436Z,417.00
2022-12-28T09:24:11.390Z,417.00
2022-12-28T09:25:11.379Z,416.00
2022-12-28T09:26:11.340Z,414.00
2022-12-28T09:27:11.370Z,417.00
2022-12-28T09:28:11.329Z,419.00
2022-12-28T09:29:11.271Z,418.00
2022-12-28T09:30:11.247Z,420.00
2022-12-28T09:31:11.244Z,421.00
2022-12-28T09:32:11.198Z,420.00
2022-12-28T09:33:11.179Z,419.00
2022-12-28T09:36:11.060Z,420.00
2022-12-28T09:37:11.088Z,424.00
2022-12-28T09:43:11.303Z,426.00
2022-12-28T10:00:11.303Z,425.00
2022-12-28T10:01:11.337Z,423.00
2022-12-28T13:19:06.151Z,416.00
2022-12-28T13:20:06.162Z,419.00
2022-12-28T13:22:06.434Z,422.00
2022-12-28T13:28:05.968Z,422.00
2022-12-28T13:58:05.377Z,426.00
2022-12-28T14:05:05.247Z,428.00
2022-12-28T14:23:04.787Z,431.00
2022-12-28T14:34:04.496Z,427.00
2022-12-28T15:12:07.908Z,421.00
2022-12-28T15:31:03.372Z,424.00
2022-12-28T16:04:02.648Z,415.00
2022-12-28T16:29:02.160Z,415.00
2022-12-28T16:30:02.131Z,412.00
2022-12-28T16:31:02.239Z,412.00
2022-12-28T16:32:02.077Z,415.00
2022-12-28T16:33:02.036Z,414.00
2022-12-28T16:34:02.068Z,413.00
2022-12-28T16:35:02.009Z,413.00
2022-12-28T16:36:02.965Z,413.00
2022-12-28T16:37:01.976Z,414.00
2022-12-28T16:38:02.012Z,413.00
2022-12-28T16:39:01.927Z,412.00
2022-12-28T16:40:02.069Z,412.00
2022-12-28T16:41:03.025Z,413.00
2022-12-28T16:42:02.452Z,415.00
2022-12-28T16:43:01.972Z,415.00
2022-12-28T16:44:01.916Z,417.00
2022-12-28T16:45:02.457Z,416.00
2022-12-28T16:46:01.964Z,416.00
2022-12-28T16:47:02.037Z,416.00
2022-12-28T16:48:01.900Z,416.00
2022-12-28T16:49:01.750Z,415.00
2022-12-28T16:50:01.923Z,416.00
2022-12-28T16:51:02.442Z,418.00
2022-12-28T16:52:01.692Z,421.00
2022-12-28T16:53:01.683Z,421.00
2022-12-28T16:54:01.666Z,421.00
2022-12-28T16:55:01.634Z,421.00
2022-12-28T16:56:01.692Z,419.00
2022-12-28T16:57:01.635Z,419.00
2022-12-28T16:58:01.590Z,420.00
2022-12-28T16:59:02.477Z,417.00
2022-12-28T17:00:01.617Z,418.00
2022-12-28T17:01:01.596Z,417.00
2022-12-28T17:02:01.750Z,418.00
2022-12-28T17:03:01.665Z,419.00
2022-12-28T17:04:03.976Z,420.00
2022-12-28T17:05:01.424Z,422.00
2022-12-28T17:06:01.508Z,422.00
2022-12-28T17:07:01.407Z,424.00
2022-12-28T17:08:01.420Z,424.00
2022-12-28T17:09:01.401Z,422.00
2022-12-28T17:10:01.382Z,421.00
2022-12-28T17:11:01.334Z,419.00
2022-12-28T17:12:01.280Z,417.00
2022-12-28T17:13:01.263Z,416.00
2022-12-28T17:14:01.271Z,415.00
2022-12-28T17:15:05.032Z,415.00
2022-12-28T17:16:01.214Z,418.00
2022-12-28T17:17:01.331Z,420.00
2022-12-28T17:18:01.209Z,421.00
2022-12-28T17:19:01.152Z,419.00
2022-12-28T17:20:01.181Z,420.00
2022-12-28T17:21:06.473Z,419.00
2022-12-28T17:22:02.129Z,415.00
2022-12-28T17:23:01.092Z,414.00
2022-12-28T17:24:01.060Z,413.00
2022-12-28T17:43:01.728Z,420.00
2022-12-28T17:52:01.990Z,418.00
2022-12-28T18:10:01.183Z,411.00
